Time;durP1;ratioP1;P1;durP2;ratioP2;P2;SDS_P1;SDS_P2;PMS_P1;PMS_P2;Temp;Humidity;BMP_temperature;BMP_pressure;BME280_temperature;BME280_humidity;BME280_pressure;Samples;Min_cycle;Max_cycle;Signal;HPM_P1;HPM_P2
2023/12/10 00:02:18;;;;;;;26.13;4.75;;;8.60;99.90;;;;;;5035014;28;20053;-73
2023/12/10 00:04:45;;;;;;;28.30;4.93;;;8.60;99.90;;;;;;5016792;28;20483;-73
2023/12/10 00:07:11;;;;;;;30.90;4.93;;;8.70;99.90;;;;;;5017323;28;20472;-73
2023/12/10 00:09:36;;;;;;;25.92;5.18;;;8.70;99.90;;;;;;5033053;28;20132;-73
2023/12/10 00:12:03;;;;;;;26.92;4.93;;;8.60;99.90;;;;;;5033528;28;20053;-73
2023/12/10 00:14:29;;;;;;;28.17;5.78;;;8.70;99.90;;;;;;5032842;28;20053;-73
2023/12/10 00:16:55;;;;;;;26.13;5.68;;;8.70;99.90;;;;;;5032636;28;20076;-73
2023/12/10 00:19:21;;;;;;;32.60;6.82;;;8.70;99.90;;;;;;5032765;28;20053;-72
2023/12/10 00:21:47;;;;;;;28.55;5.22;;;8.60;99.90;;;;;;5033399;28;20052;-72
2023/12/10 00:24:13;;;;;;;27.27;4.95;;;8.70;99.90;;;;;;5033428;28;20049;-72
2023/12/10 00:26:39;;;;;;;24.77;4.93;;;8.60;99.90;;;;;;5034049;28;20167;-72
2023/12/10 00:29:04;;;;;;;35.10;5.68;;;8.70;99.90;;;;;;5034196;28;20049;-72
2023/12/10 00:31:30;;;;;;;29.55;5.47;;;8.60;99.90;;;;;;5016294;28;20045;-72
2023/12/10 00:33:56;;;;;;;32.05;5.75;;;8.60;99.90;;;;;;5034426;28;20057;-72
2023/12/10 00:36:22;;;;;;;20.48;5.00;;;8.70;99.90;;;;;;5033390;28;20049;-71
2023/12/10 00:38:47;;;;;;;31.33;5.57;;;8.60;99.90;;;;;;5032925;28;20103;-72
2023/12/10 00:41:14;;;;;;;24.27;4.90;;;8.60;99.90;;;;;;5033213;28;20046;-72
2023/12/10 00:43:41;;;;;;;25.70;5.10;;;8.60;99.90;;;;;;5032475;28;20054;-71
2023/12/10 00:46:07;;;;;;;30.85;5.50;;;8.60;99.90;;;;;;5016749;28;20060;-72
2023/12/10 00:48:34;;;;;;;25.35;5.35;;;8.60;99.90;;;;;;5033767;28;20442;-72
2023/12/10 00:51:00;;;;;;;28.80;5.18;;;8.70;99.90;;;;;;5033691;28;20402;-72
2023/12/10 00:53:26;;;;;;;20.95;4.35;;;8.70;99.90;;;;;;5032352;28;20380;-73
2023/12/10 00:55:52;;;;;;;28.75;5.53;;;8.70;99.90;;;;;;5032370;28;20053;-72
2023/12/10 00:58:18;;;;;;;22.33;4.22;;;8.70;99.90;;;;;;5033985;28;20380;-72
2023/12/10 01:00:44;;;;;;;28.65;5.07;;;8.70;99.90;;;;;;5033434;28;20052;-72
2023/12/10 01:03:09;;;;;;;25.45;4.72;;;8.70;99.90;;;;;;5032450;28;20398;-72
2023/12/10 01:05:35;;;;;;;22.77;4.47;;;8.60;99.90;;;;;;5033379;28;20041;-72
2023/12/10 01:08:01;;;;;;;25.67;4.97;;;8.70;99.90;;;;;;5032520;28;20049;-72
2023/12/10 01:10:28;;;;;;;20.30;4.22;;;8.70;99.90;;;;;;5032142;28;20042;-72
2023/12/10 01:12:54;;;;;;;23.42;4.90;;;8.60;99.90;;;;;;5033253;28;20063;-72
2023/12/10 01:15:29;;;;;;;23.75;4.90;;;8.60;99.90;;;;;;5033491;28;20041;-72
2023/12/10 01:18:01;;;;;;;;;;;8.60;99.90;;;;;;5032489;28;20658;-72
2023/12/10 01:20:31;;;;;;;22.10;3.70;;;8.50;99.90;;;;;;5032279;28;19928;-72
2023/12/10 01:22:57;;;;;;;27.98;4.45;;;8.50;99.90;;;;;;5033127;28;20103;-73
2023/12/10 01:25:24;;;;;;;20.05;5.32;;;8.40;99.90;;;;;;5033805;28;20055;-72
2023/12/10 01:27:52;;;;;;;18.98;4.45;;;8.40;99.90;;;;;;5033078;28;20049;-72
2023/12/10 01:30:23;;;;;;;19.75;5.47;;;8.40;99.90;;;;;;5033149;28;20045;-72
2023/12/10 01:32:58;;;;;;;22.65;4.38;;;8.30;99.90;;;;;;5033004;28;20053;-73
2023/12/10 01:35:24;;;;;;;23.80;4.68;;;8.30;99.90;;;;;;5031980;28;20042;-73
2023/12/10 01:37:50;;;;;;;20.40;4.53;;;8.30;99.90;;;;;;5031970;28;20049;-75
2023/12/10 01:40:17;;;;;;;23.38;4.80;;;8.30;99.90;;;;;;5015571;28;20184;-74
2023/12/10 01:42:44;;;;;;;22.17;4.07;;;8.30;99.90;;;;;;5032904;28;20128;-74
2023/12/10 01:45:11;;;;;;;24.80;5.28;;;8.30;99.90;;;;;;5032678;28;20064;-74
2023/12/10 01:47:40;;;;;;;29.23;5.30;;;8.30;99.90;;;;;;5032282;28;20063;-74
2023/12/10 01:50:11;;;;;;;29.95;4.68;;;8.30;99.90;;;;;;5033685;28;20038;-74
2023/12/10 01:52:38;;;;;;;23.15;4.68;;;8.20;99.90;;;;;;5015612;28;20136;-74
2023/12/10 01:55:05;;;;;;;21.10;5.82;;;8.20;99.90;;;;;;5033004;28;20050;-74
2023/12/10 01:57:34;;;;;;;23.95;5.35;;;8.20;99.90;;;;;;5032907;28;20132;-73
2023/12/10 02:00:00;;;;;;;31.10;4.88;;;8.10;99.90;;;;;;5031459;28;20119;-72
2023/12/10 02:02:27;;;;;;;25.38;5.57;;;8.20;99.90;;;;;;5031098;28;20144;-74
2023/12/10 02:04:54;;;;;;;20.90;3.85;;;8.20;99.90;;;;;;5031298;28;20084;-73
2023/12/10 02:07:23;;;;;;;28.48;4.25;;;8.20;99.90;;;;;;5033450;28;20041;-73
2023/12/10 02:09:50;;;;;;;22.95;4.53;;;8.20;99.90;;;;;;5032228;28;20049;-73
2023/12/10 02:12:17;;;;;;;28.25;4.80;;;8.10;99.90;;;;;;5031569;28;20495;-73
2023/12/10 02:14:44;;;;;;;22.95;4.18;;;8.20;99.90;;;;;;5032535;28;20084;-74
2023/12/10 02:17:09;;;;;;;25.25;5.15;;;8.10;99.90;;;;;;5015218;28;20049;-74
2023/12/10 02:19:35;;;;;;;25.77;4.30;;;8.10;99.90;;;;;;5031605;28;20071;-73
2023/12/10 02:22:03;;;;;;;23.83;5.18;;;8.20;99.90;;;;;;5031026;28;20057;-73
2023/12/10 02:24:51;;;;;;;25.23;4.38;;;8.10;99.90;;;;;;5032466;28;20434;-72
2023/12/10 02:27:19;;;;;;;21.48;4.65;;;8.10;99.90;;;;;;5032913;28;20106;-73
2023/12/10 02:29:44;;;;;;;20.83;4.43;;;8.10;99.90;;;;;;5031013;28;20514;-72
2023/12/10 02:32:10;;;;;;;20.05;4.65;;;8.10;99.90;;;;;;5032391;28;20175;-72
2023/12/10 02:34:36;;;;;;;25.30;4.45;;;8.10;99.90;;;;;;5014931;28;20126;-72
2023/12/10 02:37:02;;;;;;;15.48;3.90;;;8.10;99.90;;;;;;5031377;28;20053;-72
2023/12/10 02:39:28;;;;;;;23.88;4.88;;;8.10;99.90;;;;;;5031718;28;20072;-72
2023/12/10 02:41:54;;;;;;;18.63;3.47;;;8.20;99.90;;;;;;5032088;28;20037;-72
2023/12/10 02:44:20;;;;;;;17.88;4.63;;;8.10;99.90;;;;;;5014706;28;20517;-72
2023/12/10 02:46:48;;;;;;;20.27;4.30;;;8.10;99.90;;;;;;4998871;28;20060;-72
2023/12/10 02:49:14;;;;;;;23.45;4.80;;;8.10;99.90;;;;;;5015010;28;20491;-71
2023/12/10 02:51:39;;;;;;;22.60;4.50;;;8.10;99.90;;;;;;5032181;28;20124;-71
2023/12/10 02:54:05;;;;;;;20.63;3.78;;;8.60;99.90;;;;;;5030845;28;20045;-72
2023/12/10 02:56:31;;;;;;;17.33;4.15;;;8.10;99.90;;;;;;5032421;28;20045;-71
2023/12/10 02:58:57;;;;;;;22.88;5.10;;;8.10;99.90;;;;;;5031990;28;20042;-72
2023/12/10 03:01:22;;;;;;;22.75;5.25;;;8.10;99.90;;;;;;5032441;28;20499;-72
2023/12/10 03:03:48;;;;;;;24.15;5.00;;;8.10;99.90;;;;;;5032319;28;20042;-72
2023/12/10 03:06:14;;;;;;;23.83;5.03;;;8.10;99.90;;;;;;5032287;28;20113;-73
2023/12/10 03:08:40;;;;;;;24.77;5.07;;;8.10;99.90;;;;;;5032393;28;20042;-74
2023/12/10 03:11:05;;;;;;;22.27;4.88;;;8.00;99.90;;;;;;5031153;28;20050;-73
2023/12/10 03:13:31;;;;;;;24.00;4.32;;;8.00;99.90;;;;;;5033715;28;20041;-73
2023/12/10 03:15:57;;;;;;;22.20;4.53;;;8.00;99.90;;;;;;5035236;28;20067;-73
2023/12/10 03:18:22;;;;;;;18.02;4.38;;;8.10;99.90;;;;;;5034481;28;20052;-73
2023/12/10 03:20:48;;;;;;;20.77;4.30;;;8.00;99.90;;;;;;5035172;28;20053;-73
2023/12/10 03:23:15;;;;;;;18.65;4.05;;;8.00;99.90;;;;;;5034728;28;20053;-72
2023/12/10 03:25:40;;;;;;;20.00;3.75;;;8.00;99.90;;;;;;5036338;28;20052;-72
2023/12/10 03:28:06;;;;;;;10.98;3.13;;;8.00;99.90;;;;;;5034791;28;20045;-73
2023/12/10 03:30:32;;;;;;;19.45;4.00;;;8.10;99.90;;;;;;5018541;28;20048;-73
2023/12/10 03:32:57;;;;;;;16.63;3.80;;;8.00;99.90;;;;;;5034424;28;20467;-73
2023/12/10 03:35:23;;;;;;;22.10;4.60;;;8.00;99.90;;;;;;5034882;28;20041;-72
2023/12/10 03:37:49;;;;;;;17.95;3.38;;;8.00;99.90;;;;;;5018006;28;20056;-72
2023/12/10 03:40:15;;;;;;;21.83;4.18;;;8.00;99.90;;;;;;5035090;28;20048;-73
2023/12/10 03:42:40;;;;;;;14.77;3.03;;;8.00;99.90;;;;;;5035631;28;20054;-73
2023/12/10 03:45:07;;;;;;;18.52;4.10;;;8.00;99.90;;;;;;5034796;28;20503;-73
2023/12/10 03:47:32;;;;;;;18.30;3.13;;;8.00;99.90;;;;;;5034088;28;20061;-73
2023/12/10 03:49:58;;;;;;;18.17;3.55;;;8.00;99.90;;;;;;5033964;28;20530;-72
2023/12/10 03:52:24;;;;;;;13.70;3.08;;;8.00;99.90;;;;;;5034249;28;20046;-73
2023/12/10 03:54:50;;;;;;;13.25;2.53;;;8.00;99.90;;;;;;5017898;28;20096;-73
2023/12/10 03:57:15;;;;;;;16.13;2.58;;;8.00;99.90;;;;;;5034278;28;20049;-73
2023/12/10 03:59:41;;;;;;;14.90;2.58;;;8.00;99.90;;;;;;5035665;28;20045;-74
2023/12/10 04:02:07;;;;;;;14.85;2.75;;;8.00;99.90;;;;;;5034529;28;20041;-74
2023/12/10 04:04:33;;;;;;;9.90;2.83;;;7.90;99.90;;;;;;5034126;28;20059;-73
2023/12/10 04:06:58;;;;;;;14.60;2.92;;;7.90;99.90;;;;;;5034902;28;20124;-73
2023/12/10 04:09:24;;;;;;;7.93;2.25;;;7.90;99.90;;;;;;5017078;28;20053;-73
2023/12/10 04:11:50;;;;;;;9.13;1.95;;;7.90;99.90;;;;;;5035097;28;20055;-74
2023/12/10 04:14:16;;;;;;;12.35;2.13;;;8.00;99.90;;;;;;5033398;28;20081;-74
2023/12/10 04:16:42;;;;;;;7.38;1.75;;;8.00;99.90;;;;;;5033916;28;20045;-74
2023/12/10 04:19:09;;;;;;;16.70;2.50;;;8.00;99.90;;;;;;5033237;28;20056;-74
2023/12/10 04:21:35;;;;;;;9.90;2.13;;;8.00;99.90;;;;;;5033645;28;20560;-74
2023/12/10 04:24:00;;;;;;;7.30;1.80;;;8.00;99.90;;;;;;5035002;28;20045;-74
2023/12/10 04:26:26;;;;;;;10.65;2.20;;;8.00;99.90;;;;;;5034420;28;20049;-72
2023/12/10 04:28:52;;;;;;;7.57;2.03;;;8.00;99.90;;;;;;5034824;28;20056;-74
2023/12/10 04:31:18;;;;;;;9.15;2.03;;;8.00;99.90;;;;;;5016441;28;20038;-72
2023/12/10 04:33:44;;;;;;;8.43;2.20;;;8.10;99.90;;;;;;5033485;28;20056;-73
2023/12/10 04:36:11;;;;;;;10.10;2.25;;;8.00;99.90;;;;;;5034372;28;20056;-72
2023/12/10 04:38:37;;;;;;;8.30;2.45;;;8.10;99.90;;;;;;5033466;28;20061;-73
2023/12/10 04:41:03;;;;;;;11.93;2.00;;;8.10;99.90;;;;;;5034284;28;20041;-73
2023/12/10 04:43:29;;;;;;;9.88;2.38;;;8.10;99.90;;;;;;5034787;28;20041;-73
2023/12/10 04:45:55;;;;;;;6.80;1.80;;;8.20;99.90;;;;;;5035171;28;20067;-73
2023/12/10 04:48:21;;;;;;;10.80;3.03;;;8.20;99.90;;;;;;5034142;28;20092;-72
2023/12/10 04:50:47;;;;;;;13.80;2.45;;;8.20;99.90;;;;;;5034529;28;20073;-74
2023/12/10 04:53:13;;;;;;;12.07;3.28;;;8.20;99.90;;;;;;5033793;28;20091;-73
2023/12/10 04:55:39;;;;;;;12.40;2.88;;;8.30;99.90;;;;;;5033949;28;20132;-73
2023/12/10 04:58:04;;;;;;;12.52;3.10;;;8.30;99.90;;;;;;5033084;28;20061;-73
2023/12/10 05:00:30;;;;;;;13.63;3.58;;;8.30;99.90;;;;;;5033737;28;20387;-72
2023/12/10 05:02:56;;;;;;;13.60;3.55;;;8.30;99.90;;;;;;5033889;28;20510;-73
2023/12/10 05:05:21;;;;;;;14.35;3.08;;;8.30;99.90;;;;;;5032490;28;20052;-73
2023/12/10 05:07:47;;;;;;;13.55;2.75;;;8.30;99.90;;;;;;5032510;28;20052;-73
2023/12/10 05:10:13;;;;;;;11.00;2.60;;;8.40;99.90;;;;;;5033639;28;20128;-73
2023/12/10 05:12:39;;;;;;;16.17;2.75;;;8.40;99.90;;;;;;5033995;28;20053;-73
2023/12/10 05:15:05;;;;;;;11.77;2.65;;;8.40;99.90;;;;;;5033984;28;20052;-73
2023/12/10 05:17:30;;;;;;;8.73;2.22;;;8.40;99.90;;;;;;5032253;28;20136;-73
2023/12/10 05:19:56;;;;;;;6.53;1.80;;;8.40;99.90;;;;;;5032596;28;20049;-73
2023/12/10 05:22:22;;;;;;;9.77;2.35;;;8.40;99.90;;;;;;5033160;28;20064;-73
2023/12/10 05:24:48;;;;;;;9.80;2.30;;;8.40;99.90;;;;;;5016368;28;20463;-73
2023/12/10 05:27:15;;;;;;;12.70;2.17;;;8.40;99.90;;;;;;5015665;28;20132;-73
2023/12/10 05:29:40;;;;;;;10.95;2.22;;;8.40;99.90;;;;;;5032419;28;20152;-72
2023/12/10 05:32:06;;;;;;;10.85;2.50;;;8.40;99.90;;;;;;5015363;28;20128;-72
2023/12/10 05:34:32;;;;;;;11.43;2.40;;;8.40;99.90;;;;;;5033022;28;20048;-72
2023/12/10 05:36:58;;;;;;;11.35;2.20;;;8.40;99.90;;;;;;5031469;28;20487;-72
2023/12/10 05:39:24;;;;;;;9.02;2.20;;;8.40;99.90;;;;;;5031493;28;20051;-72
2023/12/10 05:41:50;;;;;;;9.32;2.22;;;8.40;99.90;;;;;;5032105;28;20053;-72
2023/12/10 05:44:16;;;;;;;8.68;2.10;;;8.40;99.90;;;;;;5032953;28;20057;-72
2023/12/10 05:46:41;;;;;;;8.20;2.38;;;8.40;99.90;;;;;;5032186;28;20053;-72
2023/12/10 05:49:07;;;;;;;11.52;2.45;;;8.40;99.90;;;;;;5032191;28;20441;-73
2023/12/10 05:51:33;;;;;;;9.52;2.13;;;8.50;99.90;;;;;;5031446;28;20045;-73
2023/12/10 05:53:58;;;;;;;10.07;2.42;;;8.40;99.90;;;;;;5015516;28;20403;-73
2023/12/10 05:56:24;;;;;;;10.18;2.30;;;8.40;99.90;;;;;;5032489;28;20418;-73
2023/12/10 05:58:50;;;;;;;8.90;1.80;;;8.50;99.90;;;;;;5015523;28;20413;-73
2023/12/10 06:01:16;;;;;;;9.90;2.28;;;8.40;99.90;;;;;;5032594;28;20447;-73
2023/12/10 06:03:41;;;;;;;10.02;1.98;;;8.40;99.90;;;;;;5031763;28;20139;-73
2023/12/10 06:06:07;;;;;;;7.45;1.90;;;8.40;99.90;;;;;;5032583;28;20049;-72
2023/12/10 06:08:33;;;;;;;10.77;1.90;;;8.40;99.90;;;;;;5032424;28;20054;-73
2023/12/10 06:10:59;;;;;;;8.70;1.98;;;8.40;99.90;;;;;;5031627;28;20048;-73
2023/12/10 06:13:27;;;;;;;9.70;2.38;;;8.40;99.90;;;;;;5032369;28;20132;-73
2023/12/10 06:15:54;;;;;;;12.18;2.10;;;8.40;99.90;;;;;;5032747;28;20054;-73
2023/12/10 06:18:21;;;;;;;9.45;2.35;;;8.50;99.90;;;;;;5030961;28;20045;-73
2023/12/10 06:20:46;;;;;;;11.95;2.50;;;8.40;99.90;;;;;;5031832;28;20499;-73
2023/12/10 06:23:12;;;;;;;17.80;3.38;;;8.50;99.90;;;;;;5032542;28;20121;-73
2023/12/10 06:25:38;;;;;;;14.10;2.95;;;8.50;99.90;;;;;;5032293;28;20118;-73
2023/12/10 06:28:04;;;;;;;15.77;3.10;;;8.50;99.90;;;;;;5032969;28;20057;-73
2023/12/10 06:30:30;;;;;;;19.08;3.22;;;8.50;99.90;;;;;;5030880;28;20053;-73
2023/12/10 06:32:56;;;;;;;17.35;3.10;;;8.50;99.90;;;;;;5031553;28;20345;-72
2023/12/10 06:35:22;;;;;;;18.70;3.00;;;8.50;99.90;;;;;;5032133;28;20045;-73
2023/12/10 06:37:48;;;;;;;21.83;3.88;;;8.60;99.90;;;;;;5031164;28;20046;-72
2023/12/10 06:40:14;;;;;;;15.65;3.28;;;8.50;99.90;;;;;;5032405;28;20137;-72
2023/12/10 06:42:40;;;;;;;20.63;3.75;;;8.60;99.90;;;;;;5032290;28;20103;-72
2023/12/10 06:45:06;;;;;;;23.23;4.50;;;8.60;99.90;;;;;;5031348;28;20057;-72
2023/12/10 06:47:33;;;;;;;22.15;4.28;;;8.60;99.90;;;;;;5032290;28;20092;-72
2023/12/10 06:49:58;;;;;;;21.30;4.78;;;8.70;99.90;;;;;;5035026;28;20045;-72
2023/12/10 06:52:24;;;;;;;17.50;3.72;;;8.70;99.90;;;;;;5035972;28;20566;-72
2023/12/10 06:54:50;;;;;;;21.58;4.22;;;8.70;99.90;;;;;;5036343;28;20049;-72
2023/12/10 06:57:16;;;;;;;17.30;3.90;;;8.70;99.90;;;;;;5035014;28;20045;-73
2023/12/10 06:59:41;;;;;;;28.55;4.28;;;8.70;99.90;;;;;;5034467;28;20049;-73
2023/12/10 07:02:07;;;;;;;19.65;4.03;;;8.70;99.90;;;;;;5036172;28;20545;-72
2023/12/10 07:04:33;;;;;;;21.48;3.83;;;8.70;99.90;;;;;;5035610;28;20046;-72
2023/12/10 07:06:58;;;;;;;25.58;4.22;;;8.70;99.90;;;;;;5035036;28;20120;-73
2023/12/10 07:09:24;;;;;;;23.60;4.20;;;8.70;99.90;;;;;;5035662;28;20052;-73
2023/12/10 07:11:51;;;;;;;20.38;3.63;;;8.70;99.90;;;;;;5034484;28;20422;-73
2023/12/10 07:14:16;;;;;;;31.67;4.53;;;8.60;99.90;;;;;;5034892;28;20053;-72
2023/12/10 07:16:42;;;;;;;15.70;3.50;;;8.70;99.90;;;;;;5035616;28;20049;-72
2023/12/10 07:19:08;;;;;;;23.60;4.65;;;8.60;99.90;;;;;;5035705;28;20081;-72
2023/12/10 07:21:33;;;;;;;15.82;3.25;;;8.70;99.90;;;;;;5034547;28;20054;-72
2023/12/10 07:23:59;;;;;;;21.70;3.58;;;8.70;99.90;;;;;;5002476;28;20092;-73
2023/12/10 07:26:25;;;;;;;20.35;3.17;;;8.60;99.90;;;;;;5035930;28;20110;-72
2023/12/10 07:28:52;;;;;;;16.55;3.38;;;8.70;99.90;;;;;;5034556;28;20132;-72
2023/12/10 07:31:21;;;;;;;20.77;3.75;;;8.70;99.90;;;;;;5035345;28;20475;-72
2023/12/10 07:33:46;;;;;;;21.02;3.47;;;8.70;99.90;;;;;;5034087;28;20045;-73
2023/12/10 07:36:12;;;;;;;18.77;4.45;;;8.70;99.90;;;;;;5035971;28;20063;-72
2023/12/10 07:38:38;;;;;;;16.75;3.17;;;8.70;99.90;;;;;;5017706;28;20057;-72
2023/12/10 07:41:04;;;;;;;16.38;2.72;;;8.70;99.90;;;;;;5034414;28;20095;-72
2023/12/10 07:43:31;;;;;;;22.50;3.45;;;8.70;99.90;;;;;;5018075;28;20049;-73
2023/12/10 07:45:57;;;;;;;18.85;3.33;;;8.70;99.90;;;;;;5035096;28;20058;-72
2023/12/10 07:48:26;;;;;;;15.40;3.13;;;8.70;99.90;;;;;;5035030;28;20058;-72
2023/12/10 07:50:52;;;;;;;14.57;2.78;;;8.80;99.90;;;;;;5033951;28;20093;-72
2023/12/10 07:53:18;;;;;;;9.95;2.30;;;8.80;99.90;;;;;;5034218;28;20510;-72
2023/12/10 07:55:43;;;;;;;13.20;2.97;;;8.80;99.90;;;;;;5035085;28;20045;-72
2023/12/10 07:58:09;;;;;;;14.60;3.42;;;8.80;99.90;;;;;;5035340;28;20046;-72
2023/12/10 08:00:35;;;;;;;12.90;2.80;;;8.80;99.90;;;;;;5033986;28;20472;-72
2023/12/10 08:03:03;;;;;;;12.48;2.60;;;8.80;99.90;;;;;;5034124;28;20049;-74
2023/12/10 08:05:28;;;;;;;11.85;2.75;;;8.80;99.90;;;;;;5034053;28;20056;-74
2023/12/10 08:07:56;;;;;;;13.40;2.60;;;8.70;99.90;;;;;;5016715;28;20121;-73
2023/12/10 08:10:22;;;;;;;18.85;2.92;;;8.70;99.90;;;;;;5033825;28;20100;-73
2023/12/10 08:12:48;;;;;;;15.05;3.00;;;8.70;99.90;;;;;;5034380;28;20428;-74
2023/12/10 08:15:14;;;;;;;21.83;3.63;;;8.70;99.90;;;;;;5033411;28;20045;-73
2023/12/10 08:17:40;;;;;;;17.73;3.67;;;8.70;99.90;;;;;;5033077;28;20127;-73
2023/12/10 08:20:06;;;;;;;13.65;3.08;;;8.70;99.90;;;;;;5034645;28;20046;-73
2023/12/10 08:22:32;;;;;;;15.23;3.33;;;8.70;99.90;;;;;;5033385;28;20106;-72
2023/12/10 08:24:58;;;;;;;15.00;2.67;;;8.80;99.90;;;;;;5033613;28;20128;-72
2023/12/10 08:27:23;;;;;;;14.85;3.03;;;8.80;99.90;;;;;;5034559;28;20049;-72
2023/12/10 08:29:49;;;;;;;8.57;2.50;;;8.80;99.90;;;;;;5032942;28;20049;-72
2023/12/10 08:32:15;;;;;;;13.13;2.70;;;8.80;99.90;;;;;;5016789;28;20076;-72
2023/12/10 08:34:40;;;;;;;10.82;2.08;;;8.80;99.90;;;;;;5032679;28;20037;-73
2023/12/10 08:37:07;;;;;;;10.93;2.63;;;8.80;99.90;;;;;;5034251;28;20042;-73
2023/12/10 08:39:33;;;;;;;13.25;3.03;;;8.70;99.90;;;;;;5034444;28;20092;-73
2023/12/10 08:41:59;;;;;;;14.80;3.40;;;8.80;99.90;;;;;;5034092;28;20105;-73
2023/12/10 08:44:25;;;;;;;24.10;3.10;;;8.80;99.90;;;;;;5033100;28;20073;-73
2023/12/10 08:46:53;;;;;;;15.43;3.45;;;8.80;99.90;;;;;;5032502;28;20573;-73
2023/12/10 08:49:18;;;;;;;17.67;3.65;;;8.70;99.90;;;;;;5033568;28;20049;-72
2023/12/10 08:51:44;;;;;;;17.50;3.08;;;8.70;99.90;;;;;;5033391;28;20101;-74
2023/12/10 08:54:10;;;;;;;16.38;3.03;;;8.70;99.90;;;;;;5033640;28;20115;-73
2023/12/10 08:56:36;;;;;;;11.07;2.60;;;8.70;99.90;;;;;;5034297;28;20054;-73
2023/12/10 08:59:03;;;;;;;14.27;2.92;;;8.70;99.90;;;;;;5032848;28;20037;-73
2023/12/10 09:01:29;;;;;;;14.68;2.88;;;8.60;99.90;;;;;;5032899;28;20103;-73
2023/12/10 09:03:55;;;;;;;15.18;2.50;;;8.70;99.90;;;;;;5033734;28;20046;-74
2023/12/10 09:06:21;;;;;;;18.75;3.63;;;8.70;99.90;;;;;;5033977;28;20048;-73
2023/12/10 09:08:47;;;;;;;20.48;3.30;;;8.70;99.90;;;;;;5032451;28;20042;-73
2023/12/10 09:11:13;;;;;;;22.38;4.03;;;8.70;99.90;;;;;;5033902;28;20121;-73
2023/12/10 09:13:39;;;;;;;33.85;4.72;;;8.70;99.90;;;;;;5033895;28;20080;-73
2023/12/10 09:16:06;;;;;;;27.63;3.92;;;8.60;99.90;;;;;;5033487;28;20154;-72
2023/12/10 09:18:32;;;;;;;23.38;4.43;;;8.70;99.90;;;;;;5032412;28;20053;-73
2023/12/10 09:20:58;;;;;;;29.48;3.53;;;8.70;99.90;;;;;;5032193;28;20057;-73
2023/12/10 09:23:25;;;;;;;29.25;4.65;;;8.60;99.90;;;;;;5032589;28;20061;-72
2023/12/10 09:25:51;;;;;;;27.08;3.67;;;8.60;99.90;;;;;;5032895;28;20074;-75
2023/12/10 09:28:17;;;;;;;23.42;3.88;;;8.60;99.90;;;;;;5032139;28;20056;-73
2023/12/10 09:30:43;;;;;;;21.42;3.85;;;8.60;99.90;;;;;;5032262;28;20172;-74
2023/12/10 09:33:09;;;;;;;25.83;3.80;;;8.60;99.90;;;;;;5033202;28;20047;-74
2023/12/10 09:35:35;;;;;;;21.58;3.60;;;8.70;99.90;;;;;;5033514;28;20456;-73
2023/12/10 09:38:03;;;;;;;19.02;3.47;;;8.60;99.90;;;;;;5015721;28;20091;-74
2023/12/10 09:40:31;;;;;;;19.60;4.22;;;8.60;99.90;;;;;;5033130;28;20052;-73
2023/12/10 09:42:57;;;;;;;19.08;3.47;;;8.60;99.90;;;;;;5031937;28;20049;-73
2023/12/10 09:45:23;;;;;;;26.95;3.88;;;8.60;99.90;;;;;;5032782;28;20068;-72
2023/12/10 09:47:50;;;;;;;22.90;4.05;;;8.60;99.90;;;;;;5014795;28;20057;-72
2023/12/10 09:50:18;;;;;;;25.52;4.25;;;8.60;99.90;;;;;;5033171;28;20045;-72
2023/12/10 09:52:44;;;;;;;17.48;3.30;;;8.60;99.90;;;;;;5033307;28;20509;-72
2023/12/10 09:55:10;;;;;;;16.67;2.97;;;8.60;99.90;;;;;;5032127;28;20069;-72
2023/12/10 09:57:36;;;;;;;18.70;3.03;;;8.60;99.90;;;;;;5033104;28;20132;-73
2023/12/10 10:00:01;;;;;;;13.70;3.08;;;8.70;99.90;;;;;;5032731;28;20491;-73
2023/12/10 10:02:34;;;;;;;19.17;3.35;;;8.70;99.90;;;;;;5031881;28;20132;-74
2023/12/10 10:05:05;;;;;;;14.60;2.97;;;8.70;99.90;;;;;;5031886;28;20107;-74
2023/12/10 10:07:31;;;;;;;22.40;3.47;;;8.70;99.90;;;;;;5031890;28;20059;-74
2023/12/10 10:09:57;;;;;;;28.17;3.50;;;8.60;99.90;;;;;;5031399;28;20403;-74
2023/12/10 10:12:28;;;;;;;20.13;3.50;;;8.70;99.90;;;;;;5032786;28;20049;-74
2023/12/10 10:14:58;;;;;;;14.95;3.00;;;8.70;99.90;;;;;;5032379;28;20136;-73
2023/12/10 10:17:36;;;;;;;19.55;3.72;;;8.60;99.90;;;;;;5031314;28;20049;-74
2023/12/10 10:20:06;;;;;;;20.02;4.03;;;8.60;99.90;;;;;;5031755;28;20048;-75
2023/12/10 10:22:32;;;;;;;15.23;3.72;;;8.70;99.90;;;;;;5015564;28;20119;-74
2023/12/10 10:24:58;;;;;;;21.40;3.38;;;8.70;99.90;;;;;;5032972;28;20501;-71
2023/12/10 10:27:24;;;;;;;16.33;2.90;;;8.70;99.90;;;;;;5033245;28;20080;-73
2023/12/10 10:29:53;;;;;;;16.08;3.25;;;8.60;99.90;;;;;;5033337;28;20057;-74
2023/12/10 10:32:23;;;;;;;14.65;2.85;;;8.60;99.90;;;;;;5032076;28;20522;-74
2023/12/10 10:34:50;;;;;;;15.13;2.92;;;8.60;99.90;;;;;;5032035;28;20053;-74
2023/12/10 10:37:17;;;;;;;17.48;3.38;;;8.70;99.90;;;;;;5032414;28;20045;-74
2023/12/10 10:39:43;;;;;;;23.27;4.65;;;8.60;99.90;;;;;;5031898;28;20079;-73
2023/12/10 10:42:10;;;;;;;20.77;4.40;;;8.60;99.90;;;;;;5032406;28;20049;-73
2023/12/10 10:44:40;;;;;;;21.15;4.18;;;8.70;99.90;;;;;;5032428;28;20128;-74
2023/12/10 10:47:07;;;;;;;21.70;4.40;;;8.70;99.90;;;;;;5030309;28;20066;-73
2023/12/10 10:49:38;;;;;;;29.27;4.78;;;8.70;99.90;;;;;;5032486;28;20046;-74
2023/12/10 10:52:08;;;;;;;25.00;4.57;;;8.60;99.90;;;;;;5031865;28;20048;-73
2023/12/10 10:54:35;;;;;;;28.02;4.95;;;8.60;99.90;;;;;;5032643;28;20116;-73
2023/12/10 10:57:02;;;;;;;29.55;5.45;;;8.70;99.90;;;;;;5031896;28;20049;-73
2023/12/10 10:59:30;;;;;;;29.55;6.00;;;8.70;99.90;;;;;;5032604;28;20054;-73
2023/12/10 11:01:59;;;;;;;30.27;5.43;;;8.70;99.90;;;;;;5032255;28;20103;-73
2023/12/10 11:04:31;;;;;;;31.10;5.63;;;8.70;99.90;;;;;;5032235;28;20053;-73
2023/12/10 11:06:57;;;;;;;24.63;4.65;;;8.80;99.90;;;;;;5028750;28;20053;-73
2023/12/10 11:09:25;;;;;;;33.80;5.10;;;8.70;99.90;;;;;;5030796;28;20052;-72
2023/12/10 11:11:51;;;;;;;26.42;5.30;;;8.70;99.90;;;;;;5031511;28;20046;-73
2023/12/10 11:14:22;;;;;;;28.83;5.63;;;8.80;99.90;;;;;;5031570;28;20041;-73
2023/12/10 11:17:04;;;;;;;31.50;6.43;;;8.80;99.90;;;;;;5030821;28;20045;-72
2023/12/10 11:19:33;;;;;;;33.55;5.90;;;8.80;99.90;;;;;;5031874;28;20128;-71
2023/12/10 11:21:59;;;;;;;31.90;5.68;;;8.80;99.90;;;;;;5031930;28;20049;-72
2023/12/10 11:24:25;;;;;;;26.40;4.50;;;8.70;99.90;;;;;;5029849;28;20442;-72
2023/12/10 11:26:51;;;;;;;25.70;4.82;;;8.80;99.90;;;;;;5030397;28;20081;-73
2023/12/10 11:29:17;;;;;;;27.88;4.75;;;8.80;99.90;;;;;;5031232;28;20041;-73
2023/12/10 11:31:46;;;;;;;23.77;5.35;;;8.80;99.90;;;;;;5014127;28;20117;-70
2023/12/10 11:34:12;;;;;;;38.38;6.10;;;8.80;99.90;;;;;;5031035;28;20052;-72
2023/12/10 11:36:38;;;;;;;27.77;5.65;;;8.90;99.90;;;;;;5033847;28;20041;-73
2023/12/10 11:39:11;;;;;;;26.90;4.55;;;8.90;99.90;;;;;;5035215;28;20045;-73
2023/12/10 11:41:38;;;;;;;31.75;5.35;;;8.80;99.90;;;;;;5035507;28;20049;-73
2023/12/10 11:44:04;;;;;;;27.02;5.57;;;8.90;99.90;;;;;;5034993;28;20057;-73
2023/12/10 11:46:30;;;;;;;33.17;5.43;;;8.90;99.90;;;;;;5033688;28;20064;-73
2023/12/10 11:48:56;;;;;;;40.55;6.18;;;8.90;99.90;;;;;;5033956;28;20403;-73
2023/12/10 11:51:22;;;;;;;36.00;5.70;;;8.90;99.90;;;;;;5033398;28;20044;-72
2023/12/10 11:53:49;;;;;;;31.70;6.00;;;8.90;99.90;;;;;;5034242;28;20053;-72
2023/12/10 11:56:14;;;;;;;34.15;6.38;;;8.90;99.90;;;;;;5033537;28;20485;-72
2023/12/10 11:58:44;;;;;;;35.38;5.40;;;8.90;99.90;;;;;;5035759;28;20124;-72
2023/12/10 12:01:10;;;;;;;31.27;6.22;;;8.90;99.90;;;;;;5033459;28;20041;-72
2023/12/10 12:03:37;;;;;;;30.08;6.55;;;9.00;99.90;;;;;;5034852;28;20052;-72
2023/12/10 12:06:04;;;;;;;30.67;5.40;;;8.90;99.90;;;;;;5033425;28;20110;-72
2023/12/10 12:08:30;;;;;;;30.38;5.43;;;9.00;99.90;;;;;;5034199;28;20437;-72
2023/12/10 12:10:57;;;;;;;29.55;5.78;;;9.00;99.90;;;;;;5033340;28;20467;-72
2023/12/10 12:13:23;;;;;;;37.25;6.30;;;9.00;99.90;;;;;;5034102;28;20087;-72
2023/12/10 12:15:51;;;;;;;38.33;5.95;;;8.90;99.90;;;;;;5034732;28;20065;-73
2023/12/10 12:18:17;;;;;;;28.15;5.32;;;8.90;99.90;;;;;;5033697;28;20054;-72
2023/12/10 12:20:44;;;;;;;31.50;6.28;;;8.90;99.90;;;;;;5034647;28;20056;-73
2023/12/10 12:23:10;;;;;;;38.10;6.18;;;8.90;99.90;;;;;;5033654;28;20080;-72
2023/12/10 12:25:38;;;;;;;29.65;6.00;;;8.90;99.90;;;;;;5033919;28;20442;-73
2023/12/10 12:28:07;;;;;;;31.75;6.22;;;8.90;99.90;;;;;;5031876;28;20088;-72
2023/12/10 12:30:37;;;;;;;27.42;6.28;;;8.90;99.90;;;;;;5034410;28;20474;-72
2023/12/10 12:33:04;;;;;;;35.72;6.60;;;8.90;99.90;;;;;;5033374;28;20128;-73
2023/12/10 12:35:30;;;;;;;39.50;6.78;;;8.90;99.90;;;;;;5032713;28;20084;-72
2023/12/10 12:37:57;;;;;;;31.55;6.10;;;8.90;99.90;;;;;;5034387;28;20042;-71
2023/12/10 12:40:23;;;;;;;40.10;6.93;;;8.90;99.90;;;;;;5016389;28;20057;-71
2023/12/10 12:42:49;;;;;;;33.13;6.15;;;8.90;99.90;;;;;;5034278;28;20056;-70
2023/12/10 12:45:15;;;;;;;34.63;6.30;;;8.90;99.90;;;;;;5032296;28;20053;-70